sensor_id;sensor_type;location;lat;lon;timestamp;pressure;altitude;pressure_sealevel;temperature;humidity
8707;BME280;75512;49.302;9.306;2024-01-07T00:01:39;99202.19;;;5.01;59.28
8707;BME280;75512;49.302;9.306;2024-01-07T00:04:07;99200.28;;;5.03;59.11
8707;BME280;75512;49.302;9.306;2024-01-07T00:06:37;99190.88;;;5.02;59.30
8707;BME280;75512;49.302;9.306;2024-01-07T00:09:05;99184.13;;;5.11;59.04
8707;BME280;75512;49.302;9.306;2024-01-07T00:11:33;99198.66;;;5.02;59.17
8707;BME280;75512;49.302;9.306;2024-01-07T00:14:00;99194.66;;;4.98;59.54
8707;BME280;75512;49.302;9.306;2024-01-07T00:16:28;99195.81;;;5.05;59.34
8707;BME280;75512;49.302;9.306;2024-01-07T00:18:57;99195.59;;;4.97;59.49
8707;BME280;75512;49.302;9.306;2024-01-07T00:21:25;99187.94;;;4.96;59.24
8707;BME280;75512;49.302;9.306;2024-01-07T00:23:55;99185.00;;;5.00;59.51
8707;BME280;75512;49.302;9.306;2024-01-07T00:26:22;99192.63;;;5.02;59.41
8707;BME280;75512;49.302;9.306;2024-01-07T00:28:50;99193.34;;;5.04;59.45
8707;BME280;75512;49.302;9.306;2024-01-07T00:31:18;99198.78;;;5.01;59.00
8707;BME280;75512;49.302;9.306;2024-01-07T00:33:46;99199.81;;;5.09;59.23
8707;BME280;75512;49.302;9.306;2024-01-07T00:36:15;99180.53;;;4.91;59.34
8707;BME280;75512;49.302;9.306;2024-01-07T00:38:43;99187.59;;;5.00;59.10
8707;BME280;75512;49.302;9.306;2024-01-07T00:41:13;99190.50;;;5.07;59.11
8707;BME280;75512;49.302;9.306;2024-01-07T00:43:41;99187.13;;;4.95;59.61
8707;BME280;75512;49.302;9.306;2024-01-07T00:46:09;99193.69;;;5.10;59.01
8707;BME280;75512;49.302;9.306;2024-01-07T00:48:37;99190.25;;;4.67;59.99
8707;BME280;75512;49.302;9.306;2024-01-07T00:51:05;99205.16;;;4.31;61.83
8707;BME280;75512;49.302;9.306;2024-01-07T00:53:33;99206.31;;;4.49;61.45
8707;BME280;75512;49.302;9.306;2024-01-07T00:56:02;99202.19;;;4.58;61.21
8707;BME280;75512;49.302;9.306;2024-01-07T00:58:31;99193.94;;;4.53;61.06
8707;BME280;75512;49.302;9.306;2024-01-07T01:00:59;99187.78;;;4.65;60.63
8707;BME280;75512;49.302;9.306;2024-01-07T01:03:27;99222.53;;;4.63;60.57
8707;BME280;75512;49.302;9.306;2024-01-07T01:05:55;99206.44;;;4.59;60.60
8707;BME280;75512;49.302;9.306;2024-01-07T01:08:23;99212.63;;;4.68;60.72
8707;BME280;75512;49.302;9.306;2024-01-07T01:10:51;99199.00;;;4.55;60.56
8707;BME280;75512;49.302;9.306;2024-01-07T01:13:19;99202.44;;;4.55;60.90
8707;BME280;75512;49.302;9.306;2024-01-07T01:15:48;99206.88;;;4.64;60.85
8707;BME280;75512;49.302;9.306;2024-01-07T01:18:17;99210.50;;;4.62;60.62
8707;BME280;75512;49.302;9.306;2024-01-07T01:20:45;99217.72;;;4.58;60.82
8707;BME280;75512;49.302;9.306;2024-01-07T01:23:13;99217.94;;;4.66;60.42
8707;BME280;75512;49.302;9.306;2024-01-07T01:25:41;99215.84;;;4.49;61.23
8707;BME280;75512;49.302;9.306;2024-01-07T01:28:09;99210.44;;;4.52;60.56
8707;BME280;75512;49.302;9.306;2024-01-07T01:30:37;99219.97;;;4.51;61.02
8707;BME280;75512;49.302;9.306;2024-01-07T01:33:07;99214.34;;;4.35;60.97
8707;BME280;75512;49.302;9.306;2024-01-07T01:35:35;99214.41;;;3.78;62.37
8707;BME280;75512;49.302;9.306;2024-01-07T01:38:03;99214.44;;;3.43;63.44
8707;BME280;75512;49.302;9.306;2024-01-07T01:40:31;99209.88;;;3.23;64.10
8707;BME280;75512;49.302;9.306;2024-01-07T01:42:59;99223.97;;;3.18;65.44
8707;BME280;75512;49.302;9.306;2024-01-07T01:45:27;99208.94;;;3.47;63.90
8707;BME280;75512;49.302;9.306;2024-01-07T01:47:55;99203.06;;;3.22;63.50
8707;BME280;75512;49.302;9.306;2024-01-07T01:50:25;99206.91;;;3.16;63.55
8707;BME280;75512;49.302;9.306;2024-01-07T01:52:54;99211.63;;;3.46;62.98
8707;BME280;75512;49.302;9.306;2024-01-07T01:55:23;99219.13;;;3.38;63.03
8707;BME280;75512;49.302;9.306;2024-01-07T01:57:52;99202.63;;;3.63;62.16
8707;BME280;75512;49.302;9.306;2024-01-07T02:00:21;99223.59;;;3.93;60.56
8707;BME280;75512;49.302;9.306;2024-01-07T02:02:50;99231.00;;;3.87;61.01
8707;BME280;75512;49.302;9.306;2024-01-07T02:05:18;99229.63;;;4.05;60.71
8707;BME280;75512;49.302;9.306;2024-01-07T02:07:47;99226.44;;;4.01;60.94
8707;BME280;75512;49.302;9.306;2024-01-07T02:10:15;99228.81;;;4.27;60.02
8707;BME280;75512;49.302;9.306;2024-01-07T02:12:43;99227.72;;;4.18;59.73
8707;BME280;75512;49.302;9.306;2024-01-07T02:15:11;99239.75;;;4.08;60.06
8707;BME280;75512;49.302;9.306;2024-01-07T02:17:39;99226.91;;;3.95;59.96
8707;BME280;75512;49.302;9.306;2024-01-07T02:20:08;99236.06;;;4.10;60.14
8707;BME280;75512;49.302;9.306;2024-01-07T02:22:37;99227.38;;;4.23;58.90
8707;BME280;75512;49.302;9.306;2024-01-07T02:25:06;99242.91;;;4.11;59.85
8707;BME280;75512;49.302;9.306;2024-01-07T02:27:35;99239.84;;;3.95;59.75
8707;BME280;75512;49.302;9.306;2024-01-07T02:30:04;99245.38;;;4.02;59.78
8707;BME280;75512;49.302;9.306;2024-01-07T02:32:33;99224.69;;;4.02;59.93
8707;BME280;75512;49.302;9.306;2024-01-07T02:35:03;99235.72;;;4.15;59.86
8707;BME280;75512;49.302;9.306;2024-01-07T02:37:31;99245.38;;;4.46;58.68
8707;BME280;75512;49.302;9.306;2024-01-07T02:39:59;99229.16;;;4.56;58.03
8707;BME280;75512;49.302;9.306;2024-01-07T02:42:30;99225.75;;;4.33;58.45
8707;BME280;75512;49.302;9.306;2024-01-07T02:44:58;99229.25;;;4.43;58.32
8707;BME280;75512;49.302;9.306;2024-01-07T02:47:27;99227.25;;;4.58;58.01
8707;BME280;75512;49.302;9.306;2024-01-07T02:49:56;99236.28;;;4.63;57.81
8707;BME280;75512;49.302;9.306;2024-01-07T02:52:24;99248.41;;;4.63;58.27
8707;BME280;75512;49.302;9.306;2024-01-07T02:54:52;99244.78;;;4.65;58.46
8707;BME280;75512;49.302;9.306;2024-01-07T02:57:20;99231.34;;;4.71;57.66
8707;BME280;75512;49.302;9.306;2024-01-07T02:59:50;99247.34;;;4.76;57.83
8707;BME280;75512;49.302;9.306;2024-01-07T03:02:18;99239.81;;;4.73;57.50
8707;BME280;75512;49.302;9.306;2024-01-07T03:04:46;99234.53;;;4.75;57.44
8707;BME280;75512;49.302;9.306;2024-01-07T03:07:14;99243.81;;;4.77;57.80
8707;BME280;75512;49.302;9.306;2024-01-07T03:09:43;99250.78;;;4.77;57.30
8707;BME280;75512;49.302;9.306;2024-01-07T03:12:14;99242.19;;;4.76;57.55
8707;BME280;75512;49.302;9.306;2024-01-07T03:14:43;99240.75;;;4.83;57.23
8707;BME280;75512;49.302;9.306;2024-01-07T03:17:12;99246.53;;;4.87;57.00
8707;BME280;75512;49.302;9.306;2024-01-07T03:19:41;99255.78;;;4.90;57.12
8707;BME280;75512;49.302;9.306;2024-01-07T03:22:09;99242.41;;;4.73;57.42
8707;BME280;75512;49.302;9.306;2024-01-07T03:24:37;99241.84;;;4.59;58.19
8707;BME280;75512;49.302;9.306;2024-01-07T03:27:05;99235.84;;;4.13;58.31
8707;BME280;75512;49.302;9.306;2024-01-07T03:29:33;99250.34;;;4.27;58.64
8707;BME280;75512;49.302;9.306;2024-01-07T03:32:03;99239.75;;;3.62;60.62
8707;BME280;75512;49.302;9.306;2024-01-07T03:34:32;99235.41;;;3.51;61.13
8707;BME280;75512;49.302;9.306;2024-01-07T03:37:00;99241.28;;;3.05;62.34
8707;BME280;75512;49.302;9.306;2024-01-07T03:39:28;99242.53;;;3.24;62.33
8707;BME280;75512;49.302;9.306;2024-01-07T03:41:59;99255.31;;;3.38;61.65
8707;BME280;75512;49.302;9.306;2024-01-07T03:44:27;99255.19;;;3.74;61.36
8707;BME280;75512;49.302;9.306;2024-01-07T03:46:55;99249.59;;;3.92;60.58
8707;BME280;75512;49.302;9.306;2024-01-07T03:49:23;99247.50;;;4.08;59.56
8707;BME280;75512;49.302;9.306;2024-01-07T03:51:52;99257.97;;;4.17;59.28
8707;BME280;75512;49.302;9.306;2024-01-07T03:54:20;99264.31;;;4.36;58.83
8707;BME280;75512;49.302;9.306;2024-01-07T03:56:48;99268.91;;;4.43;58.21
8707;BME280;75512;49.302;9.306;2024-01-07T03:59:16;99256.19;;;4.63;57.69
8707;BME280;75512;49.302;9.306;2024-01-07T04:01:44;99268.69;;;4.58;57.67
8707;BME280;75512;49.302;9.306;2024-01-07T04:04:13;99268.34;;;4.51;58.50
8707;BME280;75512;49.302;9.306;2024-01-07T04:06:41;99264.22;;;4.48;57.88
8707;BME280;75512;49.302;9.306;2024-01-07T04:09:11;99261.75;;;4.58;58.10
8707;BME280;75512;49.302;9.306;2024-01-07T04:11:39;99257.28;;;4.60;57.26
8707;BME280;75512;49.302;9.306;2024-01-07T04:14:08;99275.03;;;4.65;57.91
8707;BME280;75512;49.302;9.306;2024-01-07T04:16:36;99283.16;;;4.71;57.85
8707;BME280;75512;49.302;9.306;2024-01-07T04:19:04;99277.97;;;4.71;57.22
8707;BME280;75512;49.302;9.306;2024-01-07T04:21:33;99281.50;;;4.81;57.10
8707;BME280;75512;49.302;9.306;2024-01-07T04:24:03;99267.50;;;4.73;57.36
8707;BME280;75512;49.302;9.306;2024-01-07T04:26:32;99284.09;;;4.81;57.39
8707;BME280;75512;49.302;9.306;2024-01-07T04:29:00;99287.50;;;4.71;57.66
8707;BME280;75512;49.302;9.306;2024-01-07T04:31:28;99287.38;;;4.72;57.36
8707;BME280;75512;49.302;9.306;2024-01-07T04:33:56;99281.72;;;4.67;57.48
8707;BME280;75512;49.302;9.306;2024-01-07T04:36:24;99286.09;;;4.78;57.28
8707;BME280;75512;49.302;9.306;2024-01-07T04:38:53;99296.91;;;4.72;57.67
8707;BME280;75512;49.302;9.306;2024-01-07T04:41:20;99306.09;;;4.76;57.39
8707;BME280;75512;49.302;9.306;2024-01-07T04:43:50;99290.09;;;4.37;58.28
8707;BME280;75512;49.302;9.306;2024-01-07T04:46:19;99288.56;;;4.46;57.68
8707;BME280;75512;49.302;9.306;2024-01-07T04:48:46;99298.22;;;4.44;57.86
8707;BME280;75512;49.302;9.306;2024-01-07T04:51:15;99291.88;;;4.26;58.60
8707;BME280;75512;49.302;9.306;2024-01-07T04:53:43;99303.03;;;4.26;58.65
8707;BME280;75512;49.302;9.306;2024-01-07T04:56:11;99301.88;;;4.30;58.49
8707;BME280;75512;49.302;9.306;2024-01-07T04:58:40;99308.00;;;4.29;58.46
8707;BME280;75512;49.302;9.306;2024-01-07T05:01:09;99307.03;;;4.41;58.12
8707;BME280;75512;49.302;9.306;2024-01-07T05:03:37;99312.22;;;4.30;58.27
8707;BME280;75512;49.302;9.306;2024-01-07T05:06:08;99306.91;;;4.21;58.00
8707;BME280;75512;49.302;9.306;2024-01-07T05:08:36;99322.69;;;4.40;58.41
8707;BME280;75512;49.302;9.306;2024-01-07T05:11:04;99308.66;;;4.20;58.36
8707;BME280;75512;49.302;9.306;2024-01-07T05:13:32;99326.06;;;3.72;59.55
8707;BME280;75512;49.302;9.306;2024-01-07T05:16:00;99322.72;;;3.35;60.41
8707;BME280;75512;49.302;9.306;2024-01-07T05:18:30;99328.88;;;3.08;61.37
8707;BME280;75512;49.302;9.306;2024-01-07T05:20:59;99335.28;;;3.52;60.17
8707;BME280;75512;49.302;9.306;2024-01-07T05:23:26;99311.66;;;3.33;60.39
8707;BME280;75512;49.302;9.306;2024-01-07T05:25:55;99329.75;;;2.96;60.77
8707;BME280;75512;49.302;9.306;2024-01-07T05:28:22;99344.22;;;2.99;60.71
8707;BME280;75512;49.302;9.306;2024-01-07T05:30:50;99335.56;;;2.87;60.70
8707;BME280;75512;49.302;9.306;2024-01-07T05:33:19;99348.41;;;2.63;61.32
8707;BME280;75512;49.302;9.306;2024-01-07T05:35:48;99349.53;;;2.72;61.69
8707;BME280;75512;49.302;9.306;2024-01-07T05:38:16;99323.41;;;2.64;60.99
8707;BME280;75512;49.302;9.306;2024-01-07T05:40:44;99352.63;;;3.26;60.02
8707;BME280;75512;49.302;9.306;2024-01-07T05:43:12;99338.03;;;2.89;60.57
8707;BME280;75512;49.302;9.306;2024-01-07T05:45:40;99360.38;;;2.77;61.18
8707;BME280;75512;49.302;9.306;2024-01-07T05:48:08;99359.13;;;2.57;61.48
8707;BME280;75512;49.302;9.306;2024-01-07T05:50:36;99360.88;;;2.69;61.35
8707;BME280;75512;49.302;9.306;2024-01-07T05:53:05;99366.56;;;2.62;60.83
8707;BME280;75512;49.302;9.306;2024-01-07T05:55:33;99371.19;;;2.31;62.46
8707;BME280;75512;49.302;9.306;2024-01-07T05:58:01;99365.34;;;2.42;61.99
8707;BME280;75512;49.302;9.306;2024-01-07T06:00:29;99371.31;;;2.30;62.14
8707;BME280;75512;49.302;9.306;2024-01-07T06:02:57;99367.06;;;2.54;61.60
8707;BME280;75512;49.302;9.306;2024-01-07T06:05:25;99367.56;;;2.97;59.99
8707;BME280;75512;49.302;9.306;2024-01-07T06:07:53;99377.63;;;2.51;61.04
8707;BME280;75512;49.302;9.306;2024-01-07T06:10:23;99369.22;;;2.86;60.14
8707;BME280;75512;49.302;9.306;2024-01-07T06:12:51;99380.31;;;2.62;61.05
8707;BME280;75512;49.302;9.306;2024-01-07T06:15:19;99375.16;;;2.49;60.90
8707;BME280;75512;49.302;9.306;2024-01-07T06:17:47;99387.50;;;2.19;61.81
8707;BME280;75512;49.302;9.306;2024-01-07T06:20:16;99390.91;;;2.20;61.86
8707;BME280;75512;49.302;9.306;2024-01-07T06:22:44;99391.16;;;2.02;62.36
8707;BME280;75512;49.302;9.306;2024-01-07T06:25:12;99383.72;;;2.25;61.89
8707;BME280;75512;49.302;9.306;2024-01-07T06:27:41;99396.09;;;2.45;61.52
8707;BME280;75512;49.302;9.306;2024-01-07T06:30:10;99390.16;;;2.05;61.10
8707;BME280;75512;49.302;9.306;2024-01-07T06:32:38;99383.72;;;1.58;61.90
8707;BME280;75512;49.302;9.306;2024-01-07T06:35:07;99395.56;;;1.75;62.22
8707;BME280;75512;49.302;9.306;2024-01-07T06:37:35;99403.03;;;1.92;62.09
8707;BME280;75512;49.302;9.306;2024-01-07T06:40:04;99409.94;;;1.65;62.59
8707;BME280;75512;49.302;9.306;2024-01-07T06:42:32;99414.38;;;1.90;62.21
8707;BME280;75512;49.302;9.306;2024-01-07T06:45:02;99417.97;;;1.87;61.23
8707;BME280;75512;49.302;9.306;2024-01-07T06:47:30;99417.47;;;1.95;60.59
8707;BME280;75512;49.302;9.306;2024-01-07T06:49:58;99437.38;;;1.93;60.55
8707;BME280;75512;49.302;9.306;2024-01-07T06:52:26;99433.66;;;2.24;59.79
8707;BME280;75512;49.302;9.306;2024-01-07T06:54:54;99431.28;;;2.33;59.66
8707;BME280;75512;49.302;9.306;2024-01-07T06:57:22;99445.00;;;2.21;58.95
8707;BME280;75512;49.302;9.306;2024-01-07T06:59:50;99440.38;;;2.26;58.88
8707;BME280;75512;49.302;9.306;2024-01-07T07:02:21;99456.91;;;2.09;59.70
8707;BME280;75512;49.302;9.306;2024-01-07T07:04:49;99441.94;;;1.48;60.85
8707;BME280;75512;49.302;9.306;2024-01-07T07:07:18;99441.16;;;1.60;60.39
8707;BME280;75512;49.302;9.306;2024-01-07T07:09:46;99447.78;;;1.23;61.46
8707;BME280;75512;49.302;9.306;2024-01-07T07:12:42;99467.78;;;1.46;60.91
8707;BME280;75512;49.302;9.306;2024-01-07T07:15:10;99458.13;;;1.36;61.07
8707;BME280;75512;49.302;9.306;2024-01-07T07:17:39;99468.72;;;1.45;61.22
8707;BME280;75512;49.302;9.306;2024-01-07T07:20:08;99470.25;;;1.62;60.38
8707;BME280;75512;49.302;9.306;2024-01-07T07:22:37;99454.44;;;1.81;59.66
8707;BME280;75512;49.302;9.306;2024-01-07T07:25:06;99465.44;;;1.70;60.02
8707;BME280;75512;49.302;9.306;2024-01-07T07:27:34;99470.81;;;2.34;58.49
8707;BME280;75512;49.302;9.306;2024-01-07T07:30:02;99479.72;;;2.55;58.03
8707;BME280;75512;49.302;9.306;2024-01-07T07:32:30;99492.16;;;2.88;57.29
8707;BME280;75512;49.302;9.306;2024-01-07T07:35:00;99497.63;;;2.31;56.95
8707;BME280;75512;49.302;9.306;2024-01-07T07:37:28;99491.47;;;2.07;58.62
8707;BME280;75512;49.302;9.306;2024-01-07T07:39:56;99515.31;;;2.10;58.23
8707;BME280;75512;49.302;9.306;2024-01-07T07:42:25;99513.84;;;2.06;58.95
8707;BME280;75512;49.302;9.306;2024-01-07T07:44:57;99494.56;;;1.99;58.00
8707;BME280;75512;49.302;9.306;2024-01-07T07:47:25;99510.50;;;1.92;57.92
8707;BME280;75512;49.302;9.306;2024-01-07T07:49:53;99516.72;;;1.75;58.54
8707;BME280;75512;49.302;9.306;2024-01-07T07:52:22;99507.19;;;1.90;59.17
8707;BME280;75512;49.302;9.306;2024-01-07T07:54:52;99517.63;;;2.15;58.11
8707;BME280;75512;49.302;9.306;2024-01-07T07:57:21;99518.88;;;1.95;58.53
8707;BME280;75512;49.302;9.306;2024-01-07T07:59:52;99514.28;;;2.00;58.68
8707;BME280;75512;49.302;9.306;2024-01-07T08:02:20;99511.63;;;2.41;57.20
8707;BME280;75512;49.302;9.306;2024-01-07T08:04:48;99527.06;;;2.68;56.36
8707;BME280;75512;49.302;9.306;2024-01-07T08:07:17;99533.38;;;2.77;56.11
8707;BME280;75512;49.302;9.306;2024-01-07T08:09:46;99527.09;;;2.41;56.65
8707;BME280;75512;49.302;9.306;2024-01-07T08:12:15;99531.00;;;2.07;56.78
8707;BME280;75512;49.302;9.306;2024-01-07T08:14:42;99539.47;;;2.36;56.58
8707;BME280;75512;49.302;9.306;2024-01-07T08:17:10;99550.44;;;2.40;56.22
8707;BME280;75512;49.302;9.306;2024-01-07T08:19:39;99557.81;;;2.59;56.20
8707;BME280;75512;49.302;9.306;2024-01-07T08:22:08;99562.91;;;2.73;55.24
8707;BME280;75512;49.302;9.306;2024-01-07T08:24:36;99557.00;;;2.31;56.19
8707;BME280;75512;49.302;9.306;2024-01-07T08:27:06;99562.63;;;1.97;57.41
8707;BME280;75512;49.302;9.306;2024-01-07T08:29:35;99569.03;;;2.04;55.62
8707;BME280;75512;49.302;9.306;2024-01-07T08:32:04;99572.34;;;2.20;56.49
8707;BME280;75512;49.302;9.306;2024-01-07T08:34:33;99563.72;;;2.34;56.50
8707;BME280;75512;49.302;9.306;2024-01-07T08:37:02;99570.53;;;2.35;55.31
8707;BME280;75512;49.302;9.306;2024-01-07T08:39:31;99571.75;;;2.29;56.29
8707;BME280;75512;49.302;9.306;2024-01-07T08:41:59;99570.75;;;1.62;56.82
8707;BME280;75512;49.302;9.306;2024-01-07T08:44:29;99577.59;;;1.63;57.11
8707;BME280;75512;49.302;9.306;2024-01-07T08:46:58;99583.03;;;2.14;55.81
8707;BME280;75512;49.302;9.306;2024-01-07T08:49:28;99581.78;;;2.34;55.10
8707;BME280;75512;49.302;9.306;2024-01-07T08:51:57;99570.09;;;2.01;55.01
8707;BME280;75512;49.302;9.306;2024-01-07T08:54:26;99579.59;;;1.87;55.96
8707;BME280;75512;49.302;9.306;2024-01-07T08:56:54;99591.19;;;1.94;54.58
8707;BME280;75512;49.302;9.306;2024-01-07T08:59:23;99584.28;;;1.23;56.40
8707;BME280;75512;49.302;9.306;2024-01-07T09:01:52;99591.69;;;0.84;57.25
8707;BME280;75512;49.302;9.306;2024-01-07T09:04:21;99583.13;;;0.69;57.64
8707;BME280;75512;49.302;9.306;2024-01-07T09:06:50;99601.75;;;0.72;58.27
8707;BME280;75512;49.302;9.306;2024-01-07T09:09:19;99597.50;;;0.87;58.28
8707;BME280;75512;49.302;9.306;2024-01-07T09:11:47;99604.75;;;0.80;57.70
8707;BME280;75512;49.302;9.306;2024-01-07T09:14:16;99603.50;;;1.32;56.35
8707;BME280;75512;49.302;9.306;2024-01-07T09:16:44;99599.19;;;1.18;56.22
8707;BME280;75512;49.302;9.306;2024-01-07T09:19:14;99602.06;;;0.98;55.50
8707;BME280;75512;49.302;9.306;2024-01-07T09:21:42;99614.25;;;1.10;57.38
8707;BME280;75512;49.302;9.306;2024-01-07T09:24:11;99586.16;;;0.75;57.10
8707;BME280;75512;49.302;9.306;2024-01-07T09:26:40;99625.81;;;0.41;57.51
8707;BME280;75512;49.302;9.306;2024-01-07T09:29:08;99620.97;;;0.51;57.94
8707;BME280;75512;49.302;9.306;2024-01-07T09:31:37;99616.56;;;0.69;56.96
8707;BME280;75512;49.302;9.306;2024-01-07T09:34:06;99626.38;;;0.46;57.47
8707;BME280;75512;49.302;9.306;2024-01-07T09:36:36;99608.28;;;0.48;57.15
8707;BME280;75512;49.302;9.306;2024-01-07T09:39:04;99617.19;;;0.88;57.17
8707;BME280;75512;49.302;9.306;2024-01-07T09:41:33;99612.53;;;1.39;55.83
8707;BME280;75512;49.302;9.306;2024-01-07T09:44:01;99615.31;;;1.64;54.34
8707;BME280;75512;49.302;9.306;2024-01-07T09:46:32;99610.75;;;1.25;54.52
8707;BME280;75512;49.302;9.306;2024-01-07T09:49:03;99612.72;;;0.92;56.10
8707;BME280;75512;49.302;9.306;2024-01-07T09:51:33;99608.03;;;0.98;55.29
8707;BME280;75512;49.302;9.306;2024-01-07T09:54:08;99617.06;;;0.91;55.87
8707;BME280;75512;49.302;9.306;2024-01-07T09:56:39;99628.56;;;1.00;55.70
8707;BME280;75512;49.302;9.306;2024-01-07T09:59:11;99622.59;;;0.84;56.13
8707;BME280;75512;49.302;9.306;2024-01-07T10:01:40;99635.13;;;0.74;56.36
8707;BME280;75512;49.302;9.306;2024-01-07T10:04:09;99633.47;;;0.73;56.00
8707;BME280;75512;49.302;9.306;2024-01-07T10:06:37;99644.19;;;0.97;55.90
8707;BME280;75512;49.302;9.306;2024-01-07T10:09:07;99631.28;;;1.27;55.19
8707;BME280;75512;49.302;9.306;2024-01-07T10:11:36;99635.34;;;1.31;54.09
8707;BME280;75512;49.302;9.306;2024-01-07T10:14:05;99629.22;;;1.47;53.82
8707;BME280;75512;49.302;9.306;2024-01-07T10:16:34;99640.28;;;1.92;53.10
8707;BME280;75512;49.302;9.306;2024-01-07T10:19:04;99649.47;;;1.54;53.56
8707;BME280;75512;49.302;9.306;2024-01-07T10:21:34;99644.09;;;0.83;55.68
8707;BME280;75512;49.302;9.306;2024-01-07T10:24:11;99648.50;;;1.26;54.30
8707;BME280;75512;49.302;9.306;2024-01-07T10:26:40;99637.81;;;1.18;54.67
8707;BME280;75512;49.302;9.306;2024-01-07T10:29:10;99645.91;;;1.26;55.23
8707;BME280;75512;49.302;9.306;2024-01-07T10:31:41;99652.00;;;0.95;55.76
8707;BME280;75512;49.302;9.306;2024-01-07T10:34:10;99658.50;;;0.39;57.21
8707;BME280;75512;49.302;9.306;2024-01-07T10:36:39;99654.78;;;0.45;56.95
8707;BME280;75512;49.302;9.306;2024-01-07T10:39:09;99665.63;;;0.97;55.58
8707;BME280;75512;49.302;9.306;2024-01-07T10:41:38;99657.09;;;0.50;55.76
8707;BME280;75512;49.302;9.306;2024-01-07T10:44:07;99666.00;;;0.44;57.08
8707;BME280;75512;49.302;9.306;2024-01-07T10:46:36;99680.25;;;0.18;57.79
8707;BME280;75512;49.302;9.306;2024-01-07T10:49:11;99652.34;;;0.10;58.45
8707;BME280;75512;49.302;9.306;2024-01-07T10:51:45;99659.56;;;0.04;58.30
8707;BME280;75512;49.302;9.306;2024-01-07T10:54:19;99670.75;;;0.03;58.22
8707;BME280;75512;49.302;9.306;2024-01-07T10:56:50;99673.47;;;-0.16;58.28
8707;BME280;75512;49.302;9.306;2024-01-07T10:59:20;99679.06;;;0.08;58.67
8707;BME280;75512;49.302;9.306;2024-01-07T11:01:50;99668.47;;;-0.19;58.63
8707;BME280;75512;49.302;9.306;2024-01-07T11:04:23;99661.78;;;-0.06;58.52
8707;BME280;75512;49.302;9.306;2024-01-07T11:07:03;99664.91;;;0.32;57.24
8707;BME280;75512;49.302;9.306;2024-01-07T11:09:42;99674.44;;;0.46;55.87
8707;BME280;75512;49.302;9.306;2024-01-07T11:12:14;99682.47;;;0.08;57.51
8707;BME280;75512;49.302;9.306;2024-01-07T11:14:43;99671.03;;;-0.19;58.55
8707;BME280;75512;49.302;9.306;2024-01-07T11:17:40;99681.44;;;-0.05;58.47
8707;BME280;75512;49.302;9.306;2024-01-07T11:20:13;99683.66;;;0.19;57.92
8707;BME280;75512;49.302;9.306;2024-01-07T11:22:42;99662.28;;;0.01;58.23
8707;BME280;75512;49.302;9.306;2024-01-07T11:25:30;99676.56;;;0.06;57.26
8707;BME280;75512;49.302;9.306;2024-01-07T11:28:01;99681.94;;;0.02;56.72
8707;BME280;75512;49.302;9.306;2024-01-07T11:30:30;99678.84;;;-0.05;57.23
8707;BME280;75512;49.302;9.306;2024-01-07T11:33:00;99685.50;;;-0.01;57.07
8707;BME280;75512;49.302;9.306;2024-01-07T11:35:54;99695.88;;;-0.02;57.73
8707;BME280;75512;49.302;9.306;2024-01-07T11:38:23;99684.50;;;0.02;57.58
8707;BME280;75512;49.302;9.306;2024-01-07T11:40:54;99696.00;;;-0.56;58.42
8707;BME280;75512;49.302;9.306;2024-01-07T11:43:23;99664.13;;;-0.51;58.71
8707;BME280;75512;49.302;9.306;2024-01-07T11:45:52;99690.97;;;-0.07;57.79
8707;BME280;75512;49.302;9.306;2024-01-07T11:48:21;99685.03;;;-0.25;57.86
8707;BME280;75512;49.302;9.306;2024-01-07T11:50:49;99682.31;;;-0.22;58.03
8707;BME280;75512;49.302;9.306;2024-01-07T11:53:22;99693.56;;;0.09;57.89
8707;BME280;75512;49.302;9.306;2024-01-07T11:55:50;99682.06;;;0.16;56.47
8707;BME280;75512;49.302;9.306;2024-01-07T11:58:20;99688.16;;;-0.35;58.33
8707;BME280;75512;49.302;9.306;2024-01-07T12:00:49;99695.03;;;-0.36;58.04
8707;BME280;75512;49.302;9.306;2024-01-07T12:03:17;99692.47;;;-0.36;58.84
8707;BME280;75512;49.302;9.306;2024-01-07T12:05:45;99699.56;;;-0.41;58.67
8707;BME280;75512;49.302;9.306;2024-01-07T12:08:14;99700.38;;;-0.23;57.00
8707;BME280;75512;49.302;9.306;2024-01-07T12:10:43;99698.09;;;-0.12;57.51
8707;BME280;75512;49.302;9.306;2024-01-07T12:13:11;99694.06;;;-0.50;57.49
8707;BME280;75512;49.302;9.306;2024-01-07T12:15:41;99704.09;;;-0.46;57.15
8707;BME280;75512;49.302;9.306;2024-01-07T12:18:09;99713.59;;;-1.00;58.72
8707;BME280;75512;49.302;9.306;2024-01-07T12:20:38;99701.66;;;-1.01;59.04
8707;BME280;75512;49.302;9.306;2024-01-07T12:23:06;99709.47;;;-0.85;58.38
8707;BME280;75512;49.302;9.306;2024-01-07T12:25:35;99716.34;;;-0.34;57.51
8707;BME280;75512;49.302;9.306;2024-01-07T12:28:06;99727.66;;;-0.55;57.77
8707;BME280;75512;49.302;9.306;2024-01-07T12:30:34;99711.28;;;-0.52;57.56
8707;BME280;75512;49.302;9.306;2024-01-07T12:33:05;99701.91;;;-0.53;58.25
8707;BME280;75512;49.302;9.306;2024-01-07T12:35:34;99728.97;;;-0.46;57.66
8707;BME280;75512;49.302;9.306;2024-01-07T12:38:02;99719.00;;;-0.87;58.11
8707;BME280;75512;49.302;9.306;2024-01-07T12:40:32;99716.34;;;-0.85;58.69
8707;BME280;75512;49.302;9.306;2024-01-07T12:43:02;99717.31;;;-1.24;58.43
8707;BME280;75512;49.302;9.306;2024-01-07T12:45:30;99735.28;;;-1.24;60.37
8707;BME280;75512;49.302;9.306;2024-01-07T12:47:59;99714.78;;;-1.07;59.25
8707;BME280;75512;49.302;9.306;2024-01-07T12:50:31;99716.09;;;-0.98;58.39
8707;BME280;75512;49.302;9.306;2024-01-07T12:52:59;99725.34;;;-1.13;58.33
8707;BME280;75512;49.302;9.306;2024-01-07T12:55:27;99727.09;;;-1.13;58.32
8707;BME280;75512;49.302;9.306;2024-01-07T12:57:56;99732.94;;;-0.75;58.27
8707;BME280;75512;49.302;9.306;2024-01-07T13:00:25;99750.19;;;-0.43;57.54
8707;BME280;75512;49.302;9.306;2024-01-07T13:02:53;99748.47;;;-0.60;56.84
8707;BME280;75512;49.302;9.306;2024-01-07T13:05:24;99741.13;;;-0.50;56.63
8707;BME280;75512;49.302;9.306;2024-01-07T13:07:54;99738.69;;;-0.18;57.94
8707;BME280;75512;49.302;9.306;2024-01-07T13:10:22;99764.63;;;-0.23;56.33
8707;BME280;75512;49.302;9.306;2024-01-07T13:12:50;99761.00;;;-0.19;57.21
8707;BME280;75512;49.302;9.306;2024-01-07T13:15:26;99759.00;;;-0.83;57.24
8707;BME280;75512;49.302;9.306;2024-01-07T13:17:54;99762.72;;;-1.07;57.77
8707;BME280;75512;49.302;9.306;2024-01-07T13:20:22;99745.06;;;-1.13;58.68
8707;BME280;75512;49.302;9.306;2024-01-07T13:22:50;99750.72;;;-1.07;57.89
8707;BME280;75512;49.302;9.306;2024-01-07T13:25:20;99755.63;;;-1.38;58.58
8707;BME280;75512;49.302;9.306;2024-01-07T13:27:48;99757.69;;;-1.65;59.01
8707;BME280;75512;49.302;9.306;2024-01-07T13:30:17;99756.22;;;-1.52;59.45